Time;durP1;ratioP1;P1;durP2;ratioP2;P2;SDS_P1;SDS_P2;PMS_P1;PMS_P2;Temp;Humidity;BMP_temperature;BMP_pressure;BME280_temperature;BME280_humidity;BME280_pressure;Samples;Min_cycle;Max_cycle;Signal;HPM_P1;HPM_P2
2023/05/04 00:02:16;;;;;;;3.05;2.75;;;11.70;99.90;;;;;;5012896;28;20125;-81
2023/05/04 00:04:43;;;;;;;3.97;3.10;;;11.70;99.90;;;;;;5013876;28;20109;-79
2023/05/04 00:07:10;;;;;;;3.92;2.97;;;11.70;99.90;;;;;;5013881;28;20060;-80
2023/05/04 00:09:37;;;;;;;3.35;2.60;;;11.70;99.90;;;;;;5023612;28;20057;-82
2023/05/04 00:12:04;;;;;;;3.70;2.72;;;11.60;99.90;;;;;;5017929;28;20070;-81
2023/05/04 00:14:31;;;;;;;3.45;2.70;;;11.70;99.90;;;;;;5018903;28;20052;-81
2023/05/04 00:16:57;;;;;;;3.28;2.80;;;11.60;99.90;;;;;;5013253;28;20042;-80
2023/05/04 00:19:24;;;;;;;2.75;2.55;;;11.60;99.90;;;;;;5015242;28;20050;-80
2023/05/04 00:21:51;;;;;;;4.07;3.00;;;11.60;99.90;;;;;;5020518;28;20044;-80
2023/05/04 00:24:18;;;;;;;5.68;2.95;;;11.50;99.90;;;;;;5015008;28;20482;-79
2023/05/04 00:26:44;;;;;;;3.03;2.72;;;11.50;99.90;;;;;;5013108;28;20080;-81
2023/05/04 00:29:11;;;;;;;3.20;2.90;;;11.50;99.90;;;;;;5016906;28;20046;-80
2023/05/04 00:31:38;;;;;;;7.22;3.05;;;11.50;99.90;;;;;;5016578;28;20129;-81
2023/05/04 00:34:04;;;;;;;3.40;3.00;;;11.40;99.90;;;;;;5009746;28;20049;-79
2023/05/04 00:36:31;;;;;;;4.90;2.72;;;11.40;99.90;;;;;;5004352;28;20433;-80
2023/05/04 00:38:58;;;;;;;3.63;2.75;;;11.40;99.90;;;;;;5010976;28;20133;-80
2023/05/04 00:41:24;;;;;;;6.38;3.42;;;11.40;99.90;;;;;;5004542;28;20422;-79
2023/05/04 00:43:51;;;;;;;7.45;3.45;;;11.30;99.90;;;;;;5014956;28;20157;-81
2023/05/04 00:46:18;;;;;;;4.72;2.90;;;11.30;99.90;;;;;;5006218;28;20480;-81
2023/05/04 00:48:47;;;;;;;3.72;3.00;;;11.30;99.90;;;;;;5014149;28;20051;-82
2023/05/04 00:51:15;;;;;;;5.50;3.30;;;11.30;99.90;;;;;;5010036;28;20042;-81
2023/05/04 00:53:42;;;;;;;4.80;3.28;;;11.20;99.90;;;;;;5012516;28;20141;-79
2023/05/04 00:56:10;;;;;;;6.88;3.80;;;11.20;99.90;;;;;;5016835;28;20054;-81
2023/05/04 00:58:36;;;;;;;7.57;3.35;;;11.20;99.90;;;;;;5012891;28;20060;-81
2023/05/04 01:01:04;;;;;;;4.43;3.50;;;11.20;99.90;;;;;;5010541;28;20056;-80
2023/05/04 01:03:32;;;;;;;5.40;3.45;;;11.10;99.90;;;;;;5013584;28;20683;-80
2023/05/04 01:06:37;;;;;;;5.20;3.40;;;11.10;99.90;;;;;;5020096;28;20110;-80
2023/05/04 01:09:09;;;;;;;3.70;3.15;;;11.10;99.90;;;;;;4995132;28;20048;-81
2023/05/04 01:11:41;;;;;;;3.53;3.22;;;11.10;99.90;;;;;;5003998;28;20070;-80
2023/05/04 01:14:11;;;;;;;5.15;3.35;;;11.00;99.90;;;;;;5011668;28;20057;-81
2023/05/04 01:16:37;;;;;;;4.82;3.47;;;11.10;99.90;;;;;;5011024;28;20050;-80
2023/05/04 01:19:05;;;;;;;4.32;3.63;;;11.00;99.90;;;;;;5013711;28;20121;-80
2023/05/04 01:21:31;;;;;;;4.25;3.28;;;11.00;99.90;;;;;;5006621;28;20054;-81
2023/05/04 01:23:58;;;;;;;5.75;3.83;;;11.00;99.90;;;;;;5011450;28;20473;-80
2023/05/04 01:26:31;;;;;;;5.68;3.50;;;10.90;99.90;;;;;;5009821;28;20056;-82
2023/05/04 01:29:24;;;;;;;9.73;3.63;;;10.90;99.90;;;;;;5010331;28;20038;-82
2023/05/04 01:31:52;;;;;;;4.40;3.55;;;10.90;99.90;;;;;;5016834;28;20213;-80
2023/05/04 01:34:20;;;;;;;4.05;3.35;;;10.90;99.90;;;;;;5011443;28;20498;-78
2023/05/04 01:36:47;;;;;;;4.85;3.78;;;10.90;99.90;;;;;;5011928;28;20051;-81
2023/05/04 01:39:14;;;;;;;5.90;3.28;;;10.90;99.90;;;;;;5010076;28;20050;-79
2023/05/04 01:41:41;;;;;;;4.43;3.92;;;10.80;99.90;;;;;;5006721;28;20488;-79
2023/05/04 01:44:08;;;;;;;6.75;3.88;;;10.80;99.90;;;;;;5010607;28;20057;-81
2023/05/04 01:46:34;;;;;;;7.13;3.80;;;10.80;99.90;;;;;;5016522;28;20074;-82
2023/05/04 01:49:01;;;;;;;6.80;3.45;;;10.70;99.90;;;;;;5015309;28;20136;-79
2023/05/04 01:51:28;;;;;;;6.05;3.70;;;10.70;99.90;;;;;;5007871;28;20059;-80
2023/05/04 01:53:55;;;;;;;5.75;3.75;;;10.70;99.90;;;;;;5011657;28;20046;-80
2023/05/04 01:56:21;;;;;;;6.85;3.90;;;10.70;99.90;;;;;;5020905;28;20062;-80
2023/05/04 01:58:48;;;;;;;5.82;3.50;;;10.70;99.90;;;;;;5015441;28;20053;-81
2023/05/04 02:01:15;;;;;;;5.07;3.60;;;10.60;99.90;;;;;;5017444;28;20050;-82
2023/05/04 02:03:41;;;;;;;7.32;4.20;;;10.60;99.90;;;;;;5020359;28;20058;-79
2023/05/04 02:06:09;;;;;;;5.00;4.13;;;10.60;99.90;;;;;;5015473;28;20065;-81
2023/05/04 02:08:36;;;;;;;5.45;3.88;;;10.60;99.90;;;;;;5020395;28;20056;-81
2023/05/04 02:11:02;;;;;;;5.63;4.13;;;10.50;99.90;;;;;;5016856;28;20101;-79
2023/05/04 02:13:29;;;;;;;4.03;3.63;;;10.50;99.90;;;;;;5020098;28;20049;-82
2023/05/04 02:15:56;;;;;;;7.50;3.97;;;10.50;99.90;;;;;;5014390;28;20052;-80
2023/05/04 02:18:22;;;;;;;6.18;3.17;;;10.50;99.90;;;;;;5018145;28;20058;-81
2023/05/04 02:20:49;;;;;;;4.43;3.58;;;10.50;99.90;;;;;;5012843;28;20058;-80
2023/05/04 02:23:16;;;;;;;5.35;4.20;;;10.40;99.90;;;;;;5016641;28;20050;-81
2023/05/04 02:25:42;;;;;;;4.85;3.80;;;10.40;99.90;;;;;;5015572;28;20055;-81
2023/05/04 02:28:09;;;;;;;5.32;3.72;;;10.40;99.90;;;;;;5011560;28;20402;-80
2023/05/04 02:30:36;;;;;;;5.07;3.92;;;10.40;99.90;;;;;;5013514;28;20042;-80
2023/05/04 02:33:03;;;;;;;6.22;4.05;;;10.40;99.90;;;;;;5015733;28;20073;-78
2023/05/04 02:35:30;;;;;;;5.97;4.35;;;10.40;99.90;;;;;;5019470;28;20577;-79
2023/05/04 02:37:56;;;;;;;5.85;4.05;;;10.30;99.90;;;;;;5021649;28;20600;-81
2023/05/04 02:40:23;;;;;;;4.30;3.58;;;10.40;99.90;;;;;;5014889;28;20055;-80
2023/05/04 02:42:50;;;;;;;5.00;3.85;;;10.30;99.90;;;;;;5017355;28;20066;-79
2023/05/04 02:45:17;;;;;;;4.82;4.20;;;10.30;99.90;;;;;;5013731;28;20417;-80
2023/05/04 02:47:43;;;;;;;6.15;3.97;;;10.30;99.90;;;;;;5017691;28;20046;-81
2023/05/04 02:50:10;;;;;;;4.63;3.85;;;10.30;99.90;;;;;;5011638;28;20419;-79
2023/05/04 02:52:37;;;;;;;6.00;3.80;;;10.30;99.90;;;;;;5016676;28;20056;-80
2023/05/04 02:55:04;;;;;;;8.43;4.53;;;10.20;99.90;;;;;;5013981;28;20137;-79
2023/05/04 02:57:31;;;;;;;7.88;4.60;;;10.20;99.90;;;;;;5009319;28;20477;-80
2023/05/04 02:59:57;;;;;;;5.57;4.25;;;10.30;99.90;;;;;;5023360;28;20057;-80
2023/05/04 03:02:24;;;;;;;5.75;4.07;;;10.20;99.90;;;;;;5006869;28;20050;-79
2023/05/04 03:04:51;;;;;;;6.18;4.50;;;10.20;99.90;;;;;;5014255;28;20046;-80
2023/05/04 03:07:17;;;;;;;4.65;3.60;;;10.20;99.90;;;;;;5014126;28;20046;-80
2023/05/04 03:09:44;;;;;;;5.60;4.05;;;10.20;99.90;;;;;;5024021;28;20050;-79
2023/05/04 03:12:13;;;;;;;5.50;3.92;;;10.20;99.90;;;;;;5013198;28;20057;-81
2023/05/04 03:14:40;;;;;;;7.15;5.18;;;10.20;99.90;;;;;;5011923;28;20050;-80
2023/05/04 03:17:06;;;;;;;8.38;5.20;;;10.20;99.90;;;;;;5015837;28;20054;-80
2023/05/04 03:19:33;;;;;;;5.97;4.55;;;10.10;99.90;;;;;;5014225;28;20060;-79
2023/05/04 03:22:00;;;;;;;13.65;4.45;;;10.10;99.90;;;;;;5014618;28;20053;-79
2023/05/04 03:24:26;;;;;;;6.38;4.30;;;10.10;99.90;;;;;;5013147;28;20056;-79
2023/05/04 03:26:53;;;;;;;4.88;4.20;;;10.10;99.90;;;;;;5008442;28;20490;-81
2023/05/04 03:29:20;;;;;;;6.35;4.53;;;10.10;99.90;;;;;;5013300;28;20074;-79
2023/05/04 03:31:46;;;;;;;5.57;4.68;;;10.00;99.90;;;;;;5006299;28;20046;-81
2023/05/04 03:34:13;;;;;;;6.68;4.43;;;10.00;99.90;;;;;;5007242;28;20053;-80
2023/05/04 03:36:40;;;;;;;7.88;4.63;;;10.00;99.90;;;;;;5008823;28;20050;-79
2023/05/04 03:39:07;;;;;;;5.32;4.55;;;10.00;99.90;;;;;;5011572;28;20049;-80
2023/05/04 03:41:33;;;;;;;4.88;4.30;;;10.00;99.90;;;;;;5009403;28;20060;-77
2023/05/04 03:44:00;;;;;;;4.72;4.13;;;10.00;99.90;;;;;;5012156;28;20560;-80
2023/05/04 03:46:27;;;;;;;6.70;5.50;;;9.90;99.90;;;;;;5019850;28;20418;-81
2023/05/04 03:48:53;;;;;;;7.43;4.20;;;9.90;99.90;;;;;;5014615;28;20046;-77
2023/05/04 03:51:20;;;;;;;5.70;4.80;;;9.90;99.90;;;;;;5014950;28;20065;-79
2023/05/04 03:53:47;;;;;;;7.50;4.78;;;9.90;99.90;;;;;;5018645;28;20082;-80
2023/05/04 03:56:13;;;;;;;6.22;4.53;;;9.90;99.90;;;;;;5020349;28;20046;-79
2023/05/04 03:58:40;;;;;;;5.88;4.60;;;9.90;99.90;;;;;;5013745;28;20109;-81
2023/05/04 04:01:07;;;;;;;7.43;4.38;;;9.90;99.90;;;;;;5006583;28;20051;-79
2023/05/04 04:03:35;;;;;;;5.35;4.40;;;9.80;99.90;;;;;;5015678;28;20058;-80
2023/05/04 04:06:07;;;;;;;7.75;4.30;;;9.80;99.90;;;;;;5010363;28;20053;-80
2023/05/04 04:08:34;;;;;;;5.47;4.32;;;9.80;99.90;;;;;;5009076;28;20233;-78
2023/05/04 04:11:01;;;;;;;6.78;4.60;;;9.80;99.90;;;;;;5009942;28;20042;-80
2023/05/04 04:13:28;;;;;;;5.68;4.35;;;9.80;99.90;;;;;;5009269;28;20046;-80
2023/05/04 04:15:54;;;;;;;5.20;4.63;;;9.80;99.90;;;;;;5010760;28;20457;-80
2023/05/04 04:18:24;;;;;;;6.57;5.00;;;9.80;99.90;;;;;;5010503;28;20054;-78
2023/05/04 04:20:51;;;;;;;9.43;4.80;;;9.80;99.90;;;;;;5017963;28;20046;-80
2023/05/04 04:23:18;;;;;;;7.43;4.95;;;9.80;99.90;;;;;;5009113;28;20057;-80
2023/05/04 04:25:45;;;;;;;8.77;5.00;;;9.80;99.90;;;;;;5011628;28;20060;-78
2023/05/04 04:28:13;;;;;;;5.93;5.30;;;9.80;99.90;;;;;;5008247;28;20052;-79
2023/05/04 04:30:40;;;;;;;9.05;6.28;;;9.80;99.90;;;;;;5008836;28;20058;-78
2023/05/04 04:33:07;;;;;;;7.22;4.32;;;9.80;99.90;;;;;;5010759;28;20092;-80
2023/05/04 04:35:34;;;;;;;6.60;5.00;;;9.80;99.90;;;;;;5007110;28;20066;-80
2023/05/04 04:38:01;;;;;;;7.65;4.85;;;9.80;99.90;;;;;;5011003;28;20045;-80
2023/05/04 04:40:29;;;;;;;7.90;5.22;;;9.80;99.90;;;;;;5007092;28;20057;-79
2023/05/04 04:42:56;;;;;;;8.15;4.97;;;9.80;99.90;;;;;;5015482;28;20073;-78
2023/05/04 04:45:23;;;;;;;8.75;4.30;;;9.80;99.90;;;;;;5016240;28;20057;-80
2023/05/04 04:47:51;;;;;;;5.93;4.60;;;9.80;99.90;;;;;;5007260;28;20085;-79
2023/05/04 04:50:18;;;;;;;8.77;4.80;;;9.80;99.90;;;;;;5014196;28;20050;-81
2023/05/04 04:52:45;;;;;;;6.30;4.78;;;9.90;99.90;;;;;;5006157;28;20050;-79
2023/05/04 04:55:12;;;;;;;5.10;4.07;;;10.00;99.90;;;;;;5014565;28;20080;-81
2023/05/04 04:57:38;;;;;;;7.38;4.30;;;10.10;99.90;;;;;;5011766;28;20054;-80
2023/05/04 05:00:08;;;;;;;5.53;4.00;;;10.20;99.90;;;;;;5023679;28;20050;-81
2023/05/04 05:02:35;;;;;;;6.40;3.60;;;10.30;99.90;;;;;;5016811;28;20054;-78
2023/05/04 05:05:02;;;;;;;6.70;3.42;;;10.40;99.90;;;;;;5014804;28;20077;-78
2023/05/04 05:07:29;;;;;;;4.10;3.50;;;10.50;99.90;;;;;;5016146;28;20057;-78
2023/05/04 05:09:56;;;;;;;5.10;3.97;;;10.60;99.90;;;;;;5010463;28;20118;-79
2023/05/04 05:12:22;;;;;;;5.03;4.20;;;10.70;99.90;;;;;;5020259;28;20049;-80
2023/05/04 05:14:49;;;;;;;4.30;3.67;;;10.80;99.90;;;;;;5013415;28;20062;-80
2023/05/04 05:17:17;;;;;;;6.68;3.80;;;10.90;99.90;;;;;;5003950;28;20050;-80
2023/05/04 05:19:45;;;;;;;5.68;4.18;;;10.90;99.90;;;;;;5011024;28;20387;-81
2023/05/04 05:22:15;;;;;;;6.53;3.78;;;11.00;99.90;;;;;;5016789;28;20102;-80
2023/05/04 05:24:42;;;;;;;4.28;3.80;;;11.00;99.90;;;;;;5019232;28;20050;-79
2023/05/04 05:27:08;;;;;;;5.57;4.20;;;11.10;99.90;;;;;;5010331;28;20113;-80
2023/05/04 05:29:36;;;;;;;7.38;4.50;;;11.10;99.90;;;;;;5019574;28;20065;-78
2023/05/04 05:32:03;;;;;;;6.93;3.85;;;11.10;99.90;;;;;;5012396;28;20045;-77
2023/05/04 05:34:30;;;;;;;5.43;4.45;;;11.10;99.90;;;;;;5013345;28;20050;-78
2023/05/04 05:36:57;;;;;;;5.45;4.07;;;11.10;99.90;;;;;;5012791;28;20125;-80
2023/05/04 05:39:23;;;;;;;9.32;4.65;;;11.20;99.90;;;;;;5014991;28;20110;-80
2023/05/04 05:41:54;;;;;;;7.03;5.13;;;11.20;99.90;;;;;;5015108;28;20429;-79
2023/05/04 05:44:20;;;;;;;6.30;4.35;;;11.20;99.90;;;;;;5033364;23;20100;-78
2023/05/04 05:46:47;;;;;;;6.05;5.00;;;11.30;99.90;;;;;;5015416;28;20042;-78
2023/05/04 05:49:14;;;;;;;6.38;5.07;;;11.30;99.90;;;;;;5019676;28;20045;-77
2023/05/04 05:51:40;;;;;;;6.45;5.40;;;11.30;99.90;;;;;;5021831;28;20057;-77
2023/05/04 05:54:07;;;;;;;8.13;5.10;;;11.40;99.90;;;;;;5020454;28;20057;-78
2023/05/04 05:56:34;;;;;;;8.18;5.10;;;11.40;99.90;;;;;;5027558;28;20055;-77
2023/05/04 05:59:01;;;;;;;10.10;5.68;;;11.50;99.90;;;;;;5025518;28;20049;-77
2023/05/04 06:01:27;;;;;;;6.43;5.32;;;11.50;99.90;;;;;;5025866;28;20410;-77
2023/05/04 06:03:54;;;;;;;5.82;4.43;;;11.50;99.90;;;;;;5027062;28;20045;-78
2023/05/04 06:06:21;;;;;;;6.45;5.30;;;11.50;99.90;;;;;;5024402;28;20054;-78
2023/05/04 06:08:48;;;;;;;6.80;5.28;;;11.60;99.90;;;;;;5026281;28;20045;-78
2023/05/04 06:11:14;;;;;;;5.50;4.68;;;11.60;99.90;;;;;;5026503;28;20049;-77
2023/05/04 06:13:41;;;;;;;8.23;5.70;;;11.70;99.90;;;;;;5025909;28;20046;-78
2023/05/04 06:16:08;;;;;;;9.90;6.35;;;11.70;99.90;;;;;;5027308;28;20056;-78
2023/05/04 06:18:34;;;;;;;8.20;6.80;;;11.70;99.90;;;;;;5021796;28;20437;-78
2023/05/04 06:21:01;;;;;;;9.25;6.80;;;11.80;99.90;;;;;;5028088;28;20056;-76
2023/05/04 06:23:29;;;;;;;7.43;6.18;;;11.80;99.90;;;;;;5022707;28;20485;-77
2023/05/04 06:25:56;;;;;;;7.78;6.60;;;11.80;99.90;;;;;;5025797;28;20038;-78
2023/05/04 06:28:22;;;;;;;8.07;7.20;;;11.90;99.90;;;;;;5024751;28;20049;-78
2023/05/04 06:30:49;;;;;;;10.93;7.93;;;11.90;99.90;;;;;;5022243;28;20068;-78
2023/05/04 06:33:16;;;;;;;8.57;7.35;;;11.90;99.90;;;;;;5025062;28;20042;-77
2023/05/04 06:35:44;;;;;;;8.23;7.20;;;12.00;99.90;;;;;;5020591;28;20129;-78
2023/05/04 06:38:10;;;;;;;8.35;7.35;;;12.00;99.90;;;;;;5020603;28;20563;-78
2023/05/04 06:40:37;;;;;;;9.40;6.70;;;12.10;99.90;;;;;;5023177;28;20049;-77
2023/05/04 06:43:04;;;;;;;13.45;7.18;;;12.10;99.90;;;;;;5028616;28;20108;-78
2023/05/04 06:45:35;;;;;;;11.10;7.20;;;12.10;99.90;;;;;;5016886;28;20057;-77
2023/05/04 06:48:03;;;;;;;13.05;6.70;;;12.20;99.90;;;;;;5022223;28;20245;-77
2023/05/04 06:50:32;;;;;;;8.45;7.15;;;12.20;99.90;;;;;;5023155;28;20088;-77
2023/05/04 06:53:07;;;;;;;10.52;6.82;;;12.30;99.90;;;;;;5022024;28;20076;-78
2023/05/04 06:55:35;;;;;;;9.07;6.97;;;12.30;99.90;;;;;;5022606;28;20445;-78
2023/05/04 06:58:03;;;;;;;9.90;6.63;;;12.40;99.90;;;;;;5021281;28;20132;-77
2023/05/04 07:00:30;;;;;;;8.50;6.45;;;12.50;99.90;;;;;;5026763;28;20057;-77
2023/05/04 07:02:57;;;;;;;10.82;6.93;;;12.50;99.90;;;;;;5025365;28;20109;-77
2023/05/04 07:05:24;;;;;;;17.58;8.30;;;12.60;99.90;;;;;;5030134;28;20049;-77
2023/05/04 07:07:51;;;;;;;13.65;7.95;;;12.60;99.90;;;;;;5025423;28;20042;-79
2023/05/04 07:10:18;;;;;;;14.10;8.35;;;12.70;99.90;;;;;;5017092;28;21846;-77
2023/05/04 07:12:45;;;;;;;9.40;7.97;;;12.70;99.90;;;;;;5017962;28;20421;-77
2023/05/04 07:15:12;;;;;;;18.27;8.57;;;12.80;99.90;;;;;;5019164;28;20531;-79
2023/05/04 07:17:39;;;;;;;12.68;8.40;;;12.80;99.90;;;;;;5024845;28;20137;-77
2023/05/04 07:20:07;;;;;;;13.00;9.10;;;12.90;99.90;;;;;;5023516;28;20060;-79
2023/05/04 07:22:34;;;;;;;10.93;8.25;;;13.00;99.90;;;;;;5015565;28;20050;-78
2023/05/04 07:25:01;;;;;;;10.50;7.88;;;13.00;99.90;;;;;;5025358;28;20480;-79
2023/05/04 07:27:27;;;;;;;10.95;8.65;;;13.10;99.90;;;;;;5023841;28;20084;-79
2023/05/04 07:29:54;;;;;;;11.98;7.78;;;13.10;99.90;;;;;;5020838;28;20046;-76
2023/05/04 07:32:21;;;;;;;9.18;7.18;;;13.10;99.90;;;;;;5021021;28;20477;-77
2023/05/04 07:34:48;;;;;;;10.93;7.57;;;13.20;99.90;;;;;;5024656;28;20041;-77
2023/05/04 07:37:15;;;;;;;10.65;7.57;;;13.20;99.90;;;;;;5022907;28;20053;-77
2023/05/04 07:39:41;;;;;;;10.35;6.68;;;13.30;99.90;;;;;;5021846;28;20049;-77
2023/05/04 07:42:10;;;;;;;9.18;7.10;;;13.40;99.90;;;;;;5021857;28;20425;-77
2023/05/04 07:44:37;;;;;;;10.15;7.63;;;13.40;99.90;;;;;;5021316;28;20112;-85
2023/05/04 07:47:04;;;;;;;9.48;7.28;;;13.50;99.90;;;;;;5021125;28;20049;-76
2023/05/04 07:49:31;;;;;;;16.08;7.72;;;13.60;99.90;;;;;;5020233;28;20049;-76
2023/05/04 07:51:58;;;;;;;10.80;6.90;;;13.70;99.90;;;;;;5011988;28;20045;-76
2023/05/04 07:54:24;;;;;;;11.00;6.65;;;13.70;99.90;;;;;;5014412;28;20052;-76
2023/05/04 07:56:51;;;;;;;8.48;7.00;;;13.80;99.90;;;;;;5010180;28;20112;-76
2023/05/04 07:59:18;;;;;;;11.40;8.38;;;13.90;99.90;;;;;;5019838;28;20524;-76
2023/05/04 08:01:46;;;;;;;10.55;7.30;;;13.90;99.90;;;;;;5008116;28;20088;-76
2023/05/04 08:04:12;;;;;;;8.43;7.32;;;14.00;99.90;;;;;;5012895;28;20133;-76
2023/05/04 08:06:40;;;;;;;9.90;7.13;;;14.00;99.90;;;;;;5016610;28;20042;-76
2023/05/04 08:09:07;;;;;;;8.80;7.43;;;14.10;99.90;;;;;;5012194;28;20528;-76
2023/05/04 08:11:34;;;;;;;9.27;7.80;;;14.10;99.90;;;;;;5017311;28;20470;-76
2023/05/04 08:14:01;;;;;;;13.30;7.65;;;14.20;99.90;;;;;;5014090;28;20058;-76
2023/05/04 08:16:28;;;;;;;9.65;7.32;;;14.10;99.90;;;;;;5015032;28;20053;-76
2023/05/04 08:18:56;;;;;;;10.00;8.07;;;14.20;99.90;;;;;;5011958;28;20079;-76
2023/05/04 08:21:22;;;;;;;9.80;7.97;;;14.20;99.90;;;;;;5017126;28;20048;-75
2023/05/04 08:23:49;;;;;;;10.43;7.32;;;14.30;99.90;;;;;;5021055;28;20049;-76
2023/05/04 08:26:16;;;;;;;10.13;7.50;;;14.30;99.90;;;;;;5020857;28;20042;-76
2023/05/04 08:28:44;;;;;;;8.90;7.60;;;14.40;99.90;;;;;;5020739;28;20054;-76
2023/05/04 08:31:12;;;;;;;9.38;7.55;;;14.40;99.90;;;;;;5021033;28;20052;-76
2023/05/04 08:33:38;;;;;;;10.85;7.72;;;14.50;99.90;;;;;;5021590;28;20124;-76
2023/05/04 08:36:07;;;;;;;11.38;8.85;;;14.50;99.90;;;;;;5020545;28;20133;-76
2023/05/04 08:38:34;;;;;;;12.38;7.88;;;14.60;99.90;;;;;;5020426;28;20132;-76
2023/05/04 08:41:05;;;;;;;9.20;7.63;;;14.60;99.90;;;;;;5020743;28;20050;-76
2023/05/04 08:43:36;;;;;;;10.30;7.40;;;14.70;99.90;;;;;;5014461;28;20058;-76
2023/05/04 08:46:03;;;;;;;12.95;8.20;;;14.70;99.90;;;;;;5021148;28;20434;-76
2023/05/04 08:48:32;;;;;;;10.35;8.27;;;14.80;99.90;;;;;;5023113;28;20517;-76
2023/05/04 08:51:01;;;;;;;12.73;7.82;;;14.90;99.90;;;;;;5021589;28;20053;-76
2023/05/04 08:53:29;;;;;;;9.63;8.20;;;14.90;99.90;;;;;;5020507;28;20048;-76
2023/05/04 08:55:58;;;;;;;12.23;7.97;;;15.00;99.90;;;;;;5016964;28;20048;-76
2023/05/04 08:58:26;;;;;;;10.75;7.15;;;15.10;99.90;;;;;;5020344;28;20140;-76
2023/05/04 09:00:54;;;;;;;11.30;7.75;;;15.20;99.90;;;;;;5022476;28;20054;-78
2023/05/04 09:03:21;;;;;;;8.75;7.38;;;15.20;99.90;;;;;;5020429;28;20081;-76
2023/05/04 09:05:49;;;;;;;8.18;6.63;;;15.30;99.90;;;;;;5021399;28;20065;-76
2023/05/04 09:08:19;;;;;;;9.35;6.78;;;15.30;99.90;;;;;;5023091;28;20417;-76
2023/05/04 09:10:46;;;;;;;7.40;6.63;;;15.40;99.90;;;;;;5021227;28;20046;-77
2023/05/04 09:13:12;;;;;;;9.23;6.53;;;15.50;99.90;;;;;;5020785;28;20049;-76
2023/05/04 09:15:39;;;;;;;9.27;6.53;;;15.60;99.90;;;;;;5022779;28;20410;-76
2023/05/04 09:18:08;;;;;;;7.75;6.00;;;15.60;99.90;;;;;;5021475;28;20069;-76
2023/05/04 09:20:43;;;;;;;9.13;6.40;;;15.70;99.90;;;;;;5023043;28;20096;-76
2023/05/04 09:23:11;;;;;;;7.65;6.80;;;15.80;99.90;;;;;;5019746;28;20050;-76
2023/05/04 09:25:54;;;;;;;10.35;6.72;;;15.80;99.90;;;;;;5022446;28;20502;-76
2023/05/04 09:28:33;;;;;;;10.18;6.15;;;15.90;99.90;;;;;;5019440;28;20049;-76
2023/05/04 09:31:01;;;;;;;8.32;6.18;;;15.90;99.90;;;;;;5000416;28;20074;-76
2023/05/04 09:33:28;;;;;;;8.27;5.97;;;16.00;99.90;;;;;;5021863;28;20050;-76
2023/05/04 09:35:58;;;;;;;7.53;6.03;;;16.10;99.90;;;;;;5019931;28;20046;-76
2023/05/04 09:38:30;;;;;;;8.55;5.88;;;16.10;99.90;;;;;;5021836;28;20050;-76
2023/05/04 09:40:57;;;;;;;7.57;5.47;;;16.10;99.90;;;;;;5022603;28;20136;-77
2023/05/04 09:43:23;;;;;;;8.85;5.35;;;16.20;99.90;;;;;;5018916;28;20087;-77
2023/05/04 09:45:50;;;;;;;10.45;6.25;;;16.20;99.90;;;;;;5021559;28;20568;-76
2023/05/04 09:48:25;;;;;;;7.60;6.47;;;16.30;99.90;;;;;;5022689;28;20049;-76
2023/05/04 09:50:57;;;;;;;8.02;5.15;;;16.30;99.90;;;;;;5018612;28;20046;-76
2023/05/04 09:53:26;;;;;;;8.35;5.30;;;16.40;99.90;;;;;;5018097;28;20050;-76
2023/05/04 09:56:00;;;;;;;7.82;5.57;;;16.40;99.90;;;;;;5021824;28;20052;-76
2023/05/04 09:58:31;;;;;;;6.00;5.40;;;16.50;99.90;;;;;;5019449;28;20108;-75
2023/05/04 10:01:00;;;;;;;8.20;4.97;;;16.60;99.90;;;;;;5021593;28;20551;-76
2023/05/04 10:03:27;;;;;;;6.10;4.97;;;16.60;99.90;;;;;;5020481;28;20080;-76
2023/05/04 10:05:56;;;;;;;9.90;5.15;;;16.70;99.90;;;;;;5019663;28;20056;-76
2023/05/04 10:08:23;;;;;;;7.20;5.20;;;16.80;99.90;;;;;;5021078;28;20053;-76
2023/05/04 10:10:51;;;;;;;6.57;5.22;;;16.80;99.90;;;;;;5021049;28;20056;-76
2023/05/04 10:13:17;;;;;;;6.03;5.30;;;16.90;99.90;;;;;;5018312;28;20050;-76
2023/05/04 10:16:20;;;;;;;7.25;5.70;;;17.00;99.90;;;;;;5018284;28;20060;-76
2023/05/04 10:19:09;;;;;;;9.52;5.35;;;17.00;99.90;;;;;;5013473;28;20058;-76
2023/05/04 10:22:08;;;;;;;9.35;5.88;;;17.10;99.90;;;;;;5014268;28;20057;-76
2023/05/04 10:24:41;;;;;;;8.20;5.80;;;17.10;99.90;;;;;;5017908;28;20065;-76
2023/05/04 10:27:12;;;;;;;7.35;5.53;;;17.10;99.90;;;;;;5013566;28;20050;-75
2023/05/04 10:29:40;;;;;;;5.95;5.25;;;17.20;99.90;;;;;;5015387;28;20049;-76
2023/05/04 10:32:20;;;;;;;6.75;5.68;;;17.30;99.90;;;;;;5016559;28;20046;-77
2023/05/04 10:34:48;;;;;;;6.50;4.90;;;17.30;99.90;;;;;;5007400;28;20445;-77
2023/05/04 10:37:19;;;;;;;8.57;5.40;;;17.40;99.90;;;;;;5009138;28;20564;-76
2023/05/04 10:39:53;;;;;;;8.15;5.20;;;17.40;99.90;;;;;;5015822;28;20054;-76
2023/05/04 10:42:20;;;;;;;8.20;5.38;;;17.50;99.90;;;;;;5018069;28;20115;-76
2023/05/04 10:44:52;;;;;;;11.82;5.57;;;17.60;99.90;;;;;;5015385;28;20057;-75
2023/05/04 10:47:39;;;;;;;6.00;5.45;;;17.70;99.90;;;;;;5016610;28;20398;-77
2023/05/04 10:50:13;;;;;;;8.02;5.78;;;17.70;99.90;;;;;;5017656;28;20132;-76
2023/05/04 10:52:52;;;;;;;10.90;5.70;;;17.70;99.90;;;;;;5038531;28;20069;-76
2023/05/04 10:55:21;;;;;;;9.80;5.53;;;17.80;99.90;;;;;;5032865;28;20077;-76
2023/05/04 10:57:52;;;;;;;8.38;5.70;;;17.90;99.90;;;;;;5015080;28;20091;-76
2023/05/04 11:00:19;;;;;;;6.55;5.78;;;18.00;99.90;;;;;;5012107;28;20085;-76
2023/05/04 11:02:48;;;;;;;8.05;5.35;;;18.00;99.90;;;;;;5014601;28;20049;-76
2023/05/04 11:05:18;;;;;;;8.18;5.60;;;18.10;99.90;;;;;;5009804;28;20420;-76
2023/05/04 11:07:51;;;;;;;8.82;5.70;;;18.20;99.90;;;;;;5012689;28;20067;-76
2023/05/04 11:10:24;;;;;;;6.93;5.03;;;18.20;99.90;;;;;;5007328;28;20054;-76
2023/05/04 11:12:51;;;;;;;8.07;5.80;;;18.30;99.90;;;;;;5007209;28;20042;-76
2023/05/04 11:15:18;;;;;;;10.40;5.88;;;18.30;99.90;;;;;;5008038;28;20461;-75
2023/05/04 11:17:46;;;;;;;7.82;5.28;;;18.30;99.90;;;;;;5018637;28;20136;-76
2023/05/04 11:20:25;;;;;;;7.10;6.25;;;18.30;99.90;;;;;;5024513;28;20050;-76
2023/05/04 11:23:08;;;;;;;8.47;5.50;;;18.40;99.90;;;;;;5015675;28;20045;-76
2023/05/04 11:25:46;;;;;;;8.25;5.00;;;18.50;99.90;;;;;;5021832;28;20428;-76
2023/05/04 11:28:13;;;;;;;4.68;4.18;;;18.60;99.90;;;;;;5019692;28;20610;-76
2023/05/04 11:30:42;;;;;;;4.10;3.67;;;18.70;99.90;;;;;;5019856;28;20092;-76
2023/05/04 11:33:11;;;;;;;7.28;4.22;;;18.70;99.90;;;;;;5020356;28;20053;-76
2023/05/04 11:35:38;;;;;;;10.00;4.50;;;18.70;99.90;;;;;;5019157;28;20049;-76
2023/05/04 11:38:06;;;;;;;6.45;4.97;;;18.90;99.90;;;;;;5014882;28;20049;-76
2023/05/04 11:40:35;;;;;;;6.03;5.07;;;18.90;99.90;;;;;;5016387;28;20049;-78
2023/05/04 11:43:02;;;;;;;8.50;4.57;;;19.00;99.90;;;;;;5015222;28;20077;-76
2023/05/04 11:45:31;;;;;;;3.65;3.33;;;19.10;99.90;;;;;;5014879;28;20053;-76
2023/05/04 11:47:59;;;;;;;4.45;3.33;;;19.10;99.90;;;;;;5011941;28;20133;-77
2023/05/04 11:50:27;;;;;;;5.20;2.83;;;19.20;99.90;;;;;;5021785;28;20103;-76
2023/05/04 11:53:10;;;;;;;3.97;2.70;;;19.20;99.90;;;;;;5025599;28;20594;-76
2023/05/04 11:55:37;;;;;;;3.38;2.10;;;19.30;99.90;;;;;;5020335;28;20425;-76
2023/05/04 11:58:06;;;;;;;3.42;1.75;;;19.30;99.90;;;;;;5025146;28;20061;-76
2023/05/04 12:00:40;;;;;;;2.10;1.63;;;19.40;99.90;;;;;;5025126;28;20053;-77
2023/05/04 12:03:12;;;;;;;4.22;1.90;;;19.50;99.90;;;;;;5020935;28;20054;-77
2023/05/04 12:06:06;;;;;;;3.30;2.00;;;19.60;99.90;;;;;;5022915;28;20049;-76
2023/05/04 12:08:34;;;;;;;3.20;2.20;;;19.70;99.90;;;;;;5017458;28;20057;-76
2023/05/04 12:11:24;;;;;;;3.75;1.92;;;19.70;99.90;;;;;;5018217;28;20048;-76
2023/05/04 12:14:05;;;;;;;2.05;1.80;;;19.70;99.90;;;;;;5015617;28;20052;-76
2023/05/04 12:16:32;;;;;;;4.45;2.10;;;19.80;99.90;;;;;;5015324;28;20084;-76
2023/05/04 12:19:09;;;;;;;2.10;1.90;;;19.80;99.90;;;;;;5015605;28;20132;-77
2023/05/04 12:21:56;;;;;;;2.00;1.60;;;19.90;99.90;;;;;;5012706;28;20133;-77
2023/05/04 12:24:26;;;;;;;8.88;2.38;;;19.90;99.90;;;;;;5014040;28;20064;-77
2023/05/04 12:26:53;;;;;;;3.53;1.75;;;20.00;99.90;;;;;;5024127;28;20737;-75
2023/05/04 12:29:20;;;;;;;2.63;2.30;;;20.00;99.90;;;;;;5029202;28;20077;-76
2023/05/04 12:31:46;;;;;;;6.07;1.90;;;20.00;99.90;;;;;;5022568;28;20042;-76
2023/05/04 12:34:13;;;;;;;3.40;1.60;;;20.10;99.90;;;;;;5026024;28;20103;-76
2023/05/04 12:36:40;;;;;;;2.72;1.50;;;20.10;99.90;;;;;;5019660;28;20060;-76
2023/05/04 12:39:07;;;;;;;1.75;1.50;;;20.20;99.90;;;;;;5022808;28;20050;-76
2023/05/04 12:41:33;;;;;;;4.40;1.90;;;20.20;99.90;;;;;;5020558;28;20425;-76
2023/05/04 12:44:00;;;;;;;3.28;1.55;;;20.20;99.90;;;;;;5019629;28;20056;-76
2023/05/04 12:46:27;;;;;;;2.03;1.83;;;20.20;99.90;;;;;;5021009;28;20453;-76
2023/05/04 12:48:53;;;;;;;2.20;1.60;;;20.20;99.90;;;;;;5015368;28;20058;-76
2023/05/04 12:51:20;;;;;;;3.03;1.58;;;20.30;99.90;;;;;;5016908;28;20053;-76
2023/05/04 12:53:47;;;;;;;3.38;1.63;;;20.30;99.90;;;;;;5013367;28;20049;-76